createdAt,value
2023-04-02T00:01:37.855Z,98432.94
2023-04-02T00:06:45.167Z,98432.59
2023-04-02T00:11:50.825Z,98445.25
2023-04-02T00:16:54.366Z,98450.28
2023-04-02T00:21:58.584Z,98468.09
2023-04-02T00:27:02.650Z,98481.13
2023-04-02T00:32:05.650Z,98486.13
2023-04-02T00:37:09.074Z,98500.41
2023-04-02T00:42:14.109Z,98512.28
2023-04-02T00:47:20.196Z,98511.13
2023-04-02T00:52:25.833Z,98520.81
2023-04-02T00:57:29.987Z,98522.75
2023-04-02T01:02:34.124Z,98529.56
2023-04-02T01:07:58.137Z,98548.78
2023-04-02T01:13:09.762Z,98547.81
2023-04-02T01:18:21.820Z,98559.16
2023-04-02T01:23:29.569Z,98570.50
2023-04-02T01:28:47.260Z,98579.41
2023-04-02T01:33:50.089Z,98585.38
2023-04-02T01:38:58.708Z,98596.97
2023-04-02T01:44:04.612Z,98600.97
2023-04-02T01:49:13.883Z,98616.63
2023-04-02T01:54:18.001Z,98625.91
2023-04-02T01:59:22.911Z,98633.38
2023-04-02T02:04:31.049Z,98634.66
2023-04-02T02:09:35.575Z,98653.22
2023-04-02T02:14:40.172Z,98662.06
2023-04-02T02:19:45.219Z,98670.97
2023-04-02T02:24:48.095Z,98670.97
2023-04-02T02:29:54.663Z,98682.94
2023-04-02T02:35:01.946Z,98700.28
2023-04-02T02:40:10.848Z,98705.63
2023-04-02T02:45:19.074Z,98720.09
2023-04-02T02:50:24.508Z,98724.41
2023-04-02T02:55:32.063Z,98736.16
2023-04-02T03:00:58.614Z,98745.66
2023-04-02T03:06:05.290Z,98754.31
2023-04-02T03:11:13.603Z,98758.84
2023-04-02T03:16:22.060Z,98767.91
2023-04-02T03:21:29.426Z,98773.47
2023-04-02T03:26:35.810Z,98787.09
2023-04-02T03:31:44.887Z,98803.38
2023-04-02T03:36:53.647Z,98812.41
2023-04-02T03:41:59.187Z,98818.38
2023-04-02T03:47:06.680Z,98822.91
2023-04-02T03:52:12.729Z,98836.28
2023-04-02T03:57:24.854Z,98843.28
2023-04-02T04:02:36.514Z,98844.69
2023-04-02T04:07:41.371Z,98863.84
2023-04-02T04:12:47.711Z,98879.91
2023-04-02T04:18:02.023Z,98888.56
2023-04-02T04:23:12.334Z,98896.97
2023-04-02T04:28:22.164Z,98905.00
2023-04-02T04:33:34.524Z,98917.34
2023-04-02T04:38:44.256Z,98925.59
2023-04-02T04:43:53.692Z,98950.66
2023-04-02T04:49:03.149Z,98957.69
2023-04-02T04:54:12.284Z,98973.50
2023-04-02T04:59:19.760Z,98978.63
2023-04-02T05:04:26.776Z,98986.44
2023-04-02T05:09:33.645Z,99000.88
2023-04-02T05:14:39.576Z,99014.19
2023-04-02T05:19:47.412Z,99017.50
2023-04-02T05:24:58.520Z,99033.75
2023-04-02T05:30:08.515Z,99047.09
2023-04-02T05:35:18.298Z,99055.50
2023-04-02T05:40:24.541Z,99061.66
2023-04-02T05:45:31.502Z,99072.94
2023-04-02T05:50:43.064Z,99076.03
2023-04-02T05:55:54.672Z,99101.13
2023-04-02T06:01:03.941Z,99107.72
2023-04-02T06:06:15.478Z,99120.44
2023-04-02T06:11:20.824Z,99130.25
2023-04-02T06:16:27.694Z,99147.97
2023-04-02T06:21:32.777Z,99156.22
2023-04-02T06:26:38.097Z,99158.59
2023-04-02T06:31:48.326Z,99174.94
2023-04-02T06:36:56.941Z,99186.88
2023-04-02T06:42:02.833Z,99199.25
2023-04-02T06:47:31.393Z,99207.72
2023-04-02T06:52:37.651Z,99219.06
2023-04-02T06:57:43.110Z,99228.59
2023-04-02T07:02:47.235Z,99239.94
2023-04-02T07:07:51.842Z,99256.91
2023-04-02T07:12:54.785Z,99267.88
2023-04-02T07:17:59.670Z,99280.06
2023-04-02T07:23:05.020Z,99286.31
2023-04-02T07:28:07.726Z,99305.31
2023-04-02T07:39:28.850Z,99316.22
2023-04-02T07:44:31.498Z,99327.78
2023-04-02T07:49:34.230Z,99329.25
2023-04-02T07:54:38.427Z,99341.63
2023-04-02T07:59:41.293Z,99352.38
2023-04-02T08:04:44.024Z,99374.41
2023-04-02T08:09:48.089Z,99388.63
2023-04-02T08:14:50.783Z,99398.34
2023-04-02T08:19:55.039Z,99404.28
2023-04-02T08:25:43.326Z,99414.81
2023-04-02T08:30:46.343Z,99424.44
2023-04-02T08:35:50.470Z,99426.53
2023-04-02T08:40:57.600Z,99448.22
2023-04-02T08:46:08.682Z,99453.88
2023-04-02T08:51:20.958Z,99470.03
2023-04-02T08:56:30.543Z,99477.31
2023-04-02T09:01:41.462Z,99488.47
2023-04-02T09:06:44.757Z,99503.06
2023-04-02T09:11:53.283Z,99499.38
2023-04-02T09:16:57.485Z,99513.03
2023-04-02T09:22:06.960Z,99523.53
2023-04-02T09:27:19.367Z,99535.78
2023-04-02T09:32:41.484Z,99551.06
2023-04-02T09:37:45.173Z,99562.00
2023-04-02T09:42:49.191Z,99577.44
2023-04-02T09:47:53.521Z,99593.16
2023-04-02T09:52:56.369Z,99586.06
2023-04-02T09:58:13.564Z,99604.88
2023-04-02T10:03:22.791Z,99611.41
2023-04-02T10:08:28.122Z,99621.16
2023-04-02T10:13:36.015Z,99639.53
2023-04-02T10:18:42.776Z,99648.00
2023-04-02T10:23:45.474Z,99668.41
2023-04-02T10:29:06.965Z,99678.44
2023-04-02T10:34:13.957Z,99694.69
2023-04-02T10:39:19.756Z,99702.69
2023-04-02T10:44:52.625Z,99699.94
2023-04-02T10:50:05.870Z,99698.44
2023-04-02T10:55:16.114Z,99709.91
2023-04-02T11:00:24.118Z,99717.00
2023-04-02T11:05:32.176Z,99735.59
2023-04-02T11:10:36.598Z,99748.75
2023-04-02T11:15:40.847Z,99753.59
2023-04-02T11:20:59.117Z,99769.28
2023-04-02T11:26:34.013Z,99773.25
2023-04-02T11:31:38.821Z,99785.38
2023-04-02T11:37:01.418Z,99779.38
2023-04-02T11:42:06.804Z,99790.94
2023-04-02T11:47:21.413Z,99797.97
2023-04-02T11:52:27.608Z,99814.25
2023-04-02T11:57:48.368Z,99812.41
2023-04-02T12:03:03.389Z,99809.59
2023-04-02T12:08:18.818Z,99815.06
2023-04-02T12:13:22.095Z,99813.66
2023-04-02T12:18:26.479Z,99824.97
2023-04-02T12:23:31.287Z,99834.84
2023-04-02T12:28:37.946Z,99839.41
2023-04-02T12:33:42.762Z,99847.91
2023-04-02T12:38:46.867Z,99853.63
2023-04-02T12:43:58.287Z,99856.13
2023-04-02T12:49:06.150Z,99867.13
2023-04-02T12:54:14.392Z,99877.84
2023-04-02T12:59:28.741Z,99879.53
2023-04-02T13:04:32.770Z,99890.63
2023-04-02T13:09:37.301Z,99894.69
2023-04-02T13:14:40.043Z,99895.22
2023-04-02T13:19:44.154Z,99905.09
2023-04-02T13:24:46.857Z,99906.34
2023-04-02T13:29:49.550Z,99924.94
2023-04-02T13:34:53.568Z,99925.72
2023-04-02T13:39:56.229Z,99929.81
2023-04-02T13:44:58.908Z,99943.47
2023-04-02T13:50:03.114Z,99957.63
2023-04-02T13:55:06.817Z,99960.41
2023-04-02T14:00:11.303Z,99970.25
2023-04-02T14:05:26.579Z,99989.81
2023-04-02T14:10:38.331Z,99984.53
2023-04-02T14:15:52.718Z,99987.09
2023-04-02T14:21:22.313Z,99996.50
2023-04-02T14:26:30.687Z,100008.41
2023-04-02T14:31:36.169Z,100011.56
2023-04-02T14:36:48.509Z,100021.16
2023-04-02T14:41:54.280Z,100032.22
2023-04-02T14:47:00.682Z,100038.56
2023-04-02T14:52:06.246Z,100036.25
2023-04-02T14:57:16.793Z,100032.56
2023-04-02T15:02:23.665Z,100045.31
2023-04-02T15:07:34.730Z,100054.63
2023-04-02T15:12:39.984Z,100056.69
2023-04-02T15:17:42.816Z,100051.03
2023-04-02T15:22:58.313Z,100056.38
2023-04-02T15:28:12.470Z,100061.38
2023-04-02T15:33:42.843Z,100061.38
2023-04-02T15:38:49.435Z,100060.28
2023-04-02T15:44:00.064Z,100065.66
2023-04-02T15:49:19.968Z,100071.13
2023-04-02T15:54:52.866Z,100079.53
2023-04-02T16:00:16.573Z,100083.53
2023-04-02T16:05:23.843Z,100089.09
2023-04-02T16:10:41.083Z,100097.59
2023-04-02T16:15:50.584Z,100102.47
2023-04-02T16:20:54.327Z,100113.38
2023-04-02T16:26:03.600Z,100119.56
2023-04-02T16:31:09.393Z,100119.25
2023-04-02T16:36:21.425Z,100126.44
2023-04-02T16:41:38.528Z,100129.13
2023-04-02T16:46:48.943Z,100138.81
2023-04-02T16:51:59.729Z,100147.56
2023-04-02T16:57:17.875Z,100157.22
2023-04-02T17:02:28.143Z,100168.28
2023-04-02T17:07:35.585Z,100172.81
2023-04-02T17:12:44.482Z,100179.50
2023-04-02T17:17:47.150Z,100190.53
2023-04-02T17:22:50.313Z,100190.38
2023-04-02T17:27:56.794Z,100199.25
2023-04-02T17:32:59.614Z,100204.09
2023-04-02T17:38:08.493Z,100212.78
2023-04-02T17:43:19.243Z,100225.00
2023-04-02T17:48:27.825Z,100226.50
2023-04-02T17:53:41.061Z,100238.88
2023-04-02T17:58:54.151Z,100247.09
2023-04-02T18:04:08.679Z,100257.94
2023-04-02T18:09:22.793Z,100257.94
2023-04-02T18:14:44.215Z,100264.25
2023-04-02T18:19:51.705Z,100274.47
2023-04-02T18:25:17.428Z,100284.19
2023-04-02T18:30:28.129Z,100292.16
2023-04-02T18:35:34.238Z,100306.19
2023-04-02T18:40:43.293Z,100311.88
2023-04-02T18:45:53.444Z,100319.22
2023-04-02T18:50:56.308Z,100325.06
2023-04-02T18:56:01.475Z,100331.03
2023-04-02T19:01:07.180Z,100329.00
2023-04-02T19:06:11.310Z,100328.75
2023-04-02T19:11:16.908Z,100337.56
2023-04-02T19:16:56.216Z,100344.66
2023-04-02T19:22:14.588Z,100357.34
2023-04-02T19:27:24.572Z,100355.94
2023-04-02T19:32:34.629Z,100364.75
2023-04-02T19:37:41.158Z,100371.88
2023-04-02T19:42:45.847Z,100376.78
2023-04-02T19:47:49.979Z,100383.09
2023-04-02T19:52:52.708Z,100386.44
2023-04-02T19:58:04.462Z,100390.41
2023-04-02T20:03:19.413Z,100396.56
2023-04-02T20:08:27.776Z,100410.41
2023-04-02T20:13:30.557Z,100403.16
2023-04-02T20:18:36.955Z,100413.72
2023-04-02T20:23:39.792Z,100415.69
2023-04-02T20:28:42.478Z,100413.06
2023-04-02T20:33:47.931Z,100412.97
2023-04-02T20:38:51.828Z,100415.94
2023-04-02T20:43:54.512Z,100429.84
2023-04-02T20:48:58.612Z,100434.81
2023-04-02T20:54:01.769Z,100439.13
2023-04-02T20:59:04.539Z,100448.63
2023-04-02T21:04:09.076Z,100457.75
2023-04-02T21:15:53.673Z,100474.38
2023-04-02T21:21:02.290Z,100474.44
2023-04-02T21:26:06.512Z,100470.16
2023-04-02T21:31:11.428Z,100474.06
2023-04-02T21:36:16.574Z,100469.94
2023-04-02T21:41:21.290Z,100478.03
2023-04-02T21:46:26.038Z,100475.88
2023-04-02T21:51:31.384Z,100492.44
2023-04-02T21:56:35.578Z,100482.06
2023-04-02T22:01:40.043Z,100487.41
2023-04-02T22:06:44.511Z,100482.38
2023-04-02T22:11:49.404Z,100485.03
2023-04-02T22:16:52.804Z,100489.38
2023-04-02T22:21:57.314Z,100501.13
2023-04-02T22:27:00.185Z,100504.47
2023-04-02T22:32:02.973Z,100508.00
2023-04-02T22:37:07.104Z,100507.38
2023-04-02T22:42:09.926Z,100516.63
2023-04-02T22:47:12.723Z,100521.97
2023-04-02T22:52:16.787Z,100527.34
2023-04-02T22:57:19.747Z,100526.69
2023-04-02T23:02:22.624Z,100534.41
2023-04-02T23:07:27.248Z,100536.59
2023-04-02T23:12:29.984Z,100537.78
2023-04-02T23:17:32.684Z,100540.81
2023-04-02T23:22:37.739Z,100534.78
2023-04-02T23:27:40.499Z,100537.94
2023-04-02T23:32:43.249Z,100546.00
2023-04-02T23:37:49.543Z,100539.59
2023-04-02T23:42:52.311Z,100545.47
2023-04-02T23:47:55.259Z,100549.97
2023-04-02T23:52:59.321Z,100554.47
2023-04-02T23:58:02.041Z,100553.75
